Time;durP1;ratioP1;P1;durP2;ratioP2;P2;SDS_P1;SDS_P2;PMS_P1;PMS_P2;Temp;Humidity;BMP_temperature;BMP_pressure;BME280_temperature;BME280_humidity;BME280_pressure;Samples;Min_cycle;Max_cycle;Signal;HPM_P1;HPM_P2
2020/12/10 00:02:06;;;;;;;11.30;7.41;;;;;;;1.81;81.58;98660.63;2001519;81;20479;-72
2020/12/10 00:05:10;;;;;;;11.66;8.13;;;;;;;1.81;81.51;98660.63;2000259;81;20367;-72
2020/12/10 00:08:11;;;;;;;12.73;7.75;;;;;;;1.82;81.20;98652.09;2001567;81;20890;-72
2020/12/10 00:11:13;;;;;;;11.64;8.09;;;;;;;1.80;81.20;98653.78;2002292;81;20324;-73
2020/12/10 00:14:14;;;;;;;11.45;7.82;;;;;;;1.83;81.44;98651.28;2002175;81;20353;-72
2020/12/10 00:17:22;;;;;;;10.89;7.51;;;;;;;1.80;81.36;98643.53;2002227;81;20358;-72
2020/12/10 00:20:24;;;;;;;12.79;8.00;;;;;;;1.81;81.37;98630.78;2001821;81;20356;-72
2020/12/10 00:23:25;;;;;;;10.00;6.91;;;;;;;1.82;81.30;98618.84;2002016;81;20381;-72
2020/12/10 00:26:27;;;;;;;11.91;8.36;;;;;;;1.77;81.32;98611.06;2002314;81;20337;-72
2020/12/10 00:29:29;;;;;;;11.14;7.24;;;;;;;1.73;81.12;98601.59;2002041;81;20492;-72
2020/12/10 00:39:19;;;;;;;11.96;7.57;;;;;;;1.76;80.88;98585.44;2020994;70;20422;-83
2020/12/10 00:42:24;;;;;;;10.38;7.01;;;;;;;1.79;80.97;98590.59;2015637;81;20344;-83
2020/12/10 00:45:26;;;;;;;11.55;8.18;;;;;;;1.76;81.11;98591.41;2014801;81;20332;-85
2020/12/10 00:48:28;;;;;;;11.09;8.18;;;;;;;1.72;81.14;98586.22;2013812;81;20317;-83
2020/12/10 00:51:30;;;;;;;10.99;7.20;;;;;;;1.74;81.34;98587.13;2013185;81;20332;-83
2020/12/10 00:54:33;;;;;;;10.02;7.39;;;;;;;1.70;81.49;98578.53;2014967;81;20320;-84
2020/12/10 00:57:35;;;;;;;12.55;7.80;;;;;;;1.67;81.60;98575.94;2019153;81;20300;-83
2020/12/10 01:00:37;;;;;;;9.84;7.57;;;;;;;1.68;81.81;98575.09;2015120;81;20350;-84
2020/12/10 01:03:39;;;;;;;12.90;8.07;;;;;;;1.67;81.72;98565.69;2019325;81;20356;-83
2020/12/10 01:06:41;;;;;;;10.32;7.60;;;;;;;1.64;81.40;98565.63;2013550;81;20391;-83
2020/12/10 01:09:43;;;;;;;10.48;7.88;;;;;;;1.67;81.33;98569.94;2017407;81;20328;-83
2020/12/10 01:12:45;;;;;;;10.39;7.80;;;;;;;1.65;81.15;98564.81;2012878;81;20353;-84
2020/12/10 01:15:47;;;;;;;10.45;6.99;;;;;;;1.63;80.90;98565.63;2013785;81;20301;-83
2020/12/10 01:18:49;;;;;;;11.70;7.57;;;;;;;1.61;80.98;98554.47;2016747;81;20317;-83
2020/12/10 01:21:51;;;;;;;12.40;7.53;;;;;;;1.59;81.17;98557.00;2013568;81;20348;-83
2020/12/10 01:24:53;;;;;;;11.94;7.85;;;;;;;1.62;81.08;98549.41;2012838;81;20338;-83
2020/12/10 01:27:55;;;;;;;10.35;7.04;;;;;;;1.61;81.15;98541.69;2012398;81;20366;-82
2020/12/10 01:30:57;;;;;;;11.00;7.46;;;;;;;1.63;80.99;98542.59;2013903;81;20312;-82
2020/12/10 01:34:00;;;;;;;9.00;6.51;;;;;;;1.55;81.08;98546.69;2014641;81;20288;-83
2020/12/10 01:37:02;;;;;;;10.41;7.71;;;;;;;1.51;81.32;98541.53;2016186;81;20469;-83
2020/12/10 01:40:04;;;;;;;9.76;7.19;;;;;;;1.43;81.33;98545.63;2013348;81;20316;-85
2020/12/10 01:43:06;;;;;;;11.77;7.26;;;;;;;1.37;81.47;98548.09;2013033;81;20307;-82
2020/12/10 01:46:09;;;;;;;12.19;7.57;;;;;;;1.26;81.55;98544.50;2012624;81;20333;-83
2020/12/10 01:49:14;;;;;;;9.20;6.39;;;;;;;1.22;81.84;98542.69;2013044;81;20344;-83
2020/12/10 01:52:16;;;;;;;10.48;7.05;;;;;;;1.22;81.94;98535.00;2013953;81;20324;-82
2020/12/10 01:55:18;;;;;;;9.09;6.50;;;;;;;1.20;82.02;98526.47;2014223;81;20296;-83
2020/12/10 01:58:20;;;;;;;10.16;7.39;;;;;;;1.18;82.19;98534.09;2015828;80;20319;-83
2020/12/10 02:01:22;;;;;;;9.69;6.91;;;;;;;1.18;82.16;98529.00;2015537;81;20360;-83
2020/12/10 02:04:29;;;;;;;8.71;6.66;;;;;;;1.15;82.51;98530.63;2013653;81;20342;-83
2020/12/10 02:07:32;;;;;;;10.20;7.31;;;;;;;1.14;82.92;98519.53;2014560;81;20335;-83
2020/12/10 02:10:35;;;;;;;9.93;7.16;;;;;;;1.15;83.00;98517.84;2014210;81;20316;-83
2020/12/10 02:13:37;;;;;;;10.24;7.11;;;;;;;1.18;83.10;98515.34;2013518;81;20309;-83
2020/12/10 02:16:40;;;;;;;10.76;7.42;;;;;;;1.15;83.16;98503.38;2020555;81;20450;-83
2020/12/10 02:19:41;;;;;;;12.30;7.61;;;;;;;1.18;83.15;98511.09;2015758;81;20166;-84
2020/12/10 02:22:46;;;;;;;9.27;6.91;;;;;;;1.17;83.10;98500.84;2012051;85;20345;-83
2020/12/10 02:25:51;;;;;;;12.11;7.03;;;;;;;1.18;83.25;98505.97;2014488;81;20346;-83
2020/12/10 02:28:59;;;;;;;9.50;6.76;;;;;;;1.15;83.36;98505.94;2012874;81;20433;-83
2020/12/10 02:32:00;;;;;;;12.11;7.53;;;;;;;1.11;83.40;98499.03;2015567;81;20277;-83
2020/12/10 02:35:03;;;;;;;8.80;6.15;;;;;;;1.12;83.60;98492.25;2015296;81;20316;-84
2020/12/10 02:38:07;;;;;;;9.30;6.36;;;;;;;1.15;83.52;98489.72;2019570;81;20313;-85
2020/12/10 02:41:13;;;;;;;10.01;7.37;;;;;;;1.12;83.73;98493.09;2018408;81;20406;-83
2020/12/10 02:44:15;;;;;;;10.69;6.90;;;;;;;1.15;83.76;98495.72;2018481;80;20272;-83
2020/12/10 02:47:17;;;;;;;9.86;7.07;;;;;;;1.14;83.58;98485.44;2016113;81;20309;-84
2020/12/10 02:50:19;;;;;;;8.98;7.14;;;;;;;1.14;83.53;98481.19;2015571;81;20339;-84
2020/12/10 02:53:21;;;;;;;9.96;6.80;;;;;;;1.17;83.43;98477.84;2015189;81;20176;-85
2020/12/10 02:56:23;;;;;;;9.90;7.11;;;;;;;1.19;83.38;98476.16;2020418;81;20348;-84
2020/12/10 02:59:25;;;;;;;9.79;6.70;;;;;;;1.22;83.35;98476.22;2013304;81;20309;-84
2020/12/10 03:02:28;;;;;;;9.69;7.22;;;;;;;1.24;83.51;98466.00;2017450;80;20324;-84
2020/12/10 03:05:30;;;;;;;10.71;7.46;;;;;;;1.22;83.70;98465.97;2017227;80;20301;-84
2020/12/10 03:08:33;;;;;;;12.29;7.05;;;;;;;1.18;83.67;98465.06;2014178;81;20316;-82
2020/12/10 03:11:35;;;;;;;8.85;6.89;;;;;;;1.17;83.70;98450.56;2015948;81;20346;-83
2020/12/10 03:14:37;;;;;;;9.82;6.57;;;;;;;1.14;83.52;98449.66;2012348;81;20334;-84
2020/12/10 03:17:39;;;;;;;11.61;6.86;;;;;;;1.16;83.44;98443.75;2017178;81;20397;-83
2020/12/10 03:20:40;;;;;;;8.39;6.61;;;;;;;1.13;83.47;98440.28;2019336;81;20348;-84
2020/12/10 03:23:42;;;;;;;8.74;7.00;;;;;;;1.14;83.45;98430.06;2013959;81;20226;-84
2020/12/10 03:26:43;;;;;;;8.36;6.19;;;;;;;1.14;83.49;98424.97;2016130;81;20308;-83
2020/12/10 03:29:45;;;;;;;10.34;6.91;;;;;;;1.13;83.42;98420.69;2012752;81;20304;-82
2020/12/10 03:32:46;;;;;;;7.30;6.11;;;;;;;1.12;83.48;98410.44;2013724;81;20359;-82
2020/12/10 03:35:48;;;;;;;9.75;6.45;;;;;;;1.05;83.71;98408.59;2014744;81;20293;-83
2020/12/10 03:38:49;;;;;;;8.96;6.44;;;;;;;0.99;83.80;98405.94;2015897;81;20328;-84
2020/12/10 03:41:52;;;;;;;9.95;6.60;;;;;;;0.96;83.84;98405.88;2016267;81;20257;-84
2020/12/10 03:44:54;;;;;;;9.34;6.79;;;;;;;0.94;83.81;98400.75;2018344;81;20278;-83
2020/12/10 03:47:55;;;;;;;10.63;6.66;;;;;;;0.80;83.52;98397.09;2013253;81;20680;-83
2020/12/10 03:50:57;;;;;;;9.81;6.44;;;;;;;0.74;83.80;98391.88;2014127;81;20173;-83
2020/12/10 03:53:59;;;;;;;10.69;6.59;;;;;;;0.73;83.69;98382.50;2017669;81;20312;-83
2020/12/10 03:57:01;;;;;;;10.52;6.71;;;;;;;0.68;83.61;98381.53;2015007;81;20146;-83
2020/12/10 04:00:04;;;;;;;8.49;6.38;;;;;;;0.59;83.40;98383.09;2014683;81;20206;-83
2020/12/10 04:03:05;;;;;;;8.30;6.52;;;;;;;0.51;83.33;98374.41;2014410;81;20350;-82
2020/12/10 04:06:07;;;;;;;9.42;6.67;;;;;;;0.39;83.19;98370.78;2014655;81;20170;-82
2020/12/10 04:09:10;;;;;;;9.68;6.89;;;;;;;0.30;83.31;98368.91;2014088;81;20189;-82
2020/12/10 04:12:12;;;;;;;9.82;6.86;;;;;;;0.25;83.13;98363.72;2014150;81;20131;-82
2020/12/10 04:15:13;;;;;;;8.61;6.40;;;;;;;0.19;82.88;98361.06;2012281;81;20235;-82
2020/12/10 04:18:15;;;;;;;8.13;6.08;;;;;;;0.14;82.79;98361.75;2014102;81;20190;-82
2020/12/10 04:21:16;;;;;;;8.29;6.31;;;;;;;0.08;82.58;98356.56;2015345;81;20195;-82
2020/12/10 04:24:18;;;;;;;8.62;6.19;;;;;;;0.03;82.50;98365.81;2015973;80;20195;-82
2020/12/10 04:27:19;;;;;;;8.68;5.76;;;;;;;-0.05;82.47;98358.84;2016263;81;20191;-83
2020/12/10 04:30:21;;;;;;;8.40;5.99;;;;;;;-0.09;82.51;98359.63;2013334;81;20189;-81
2020/12/10 04:33:23;;;;;;;10.42;6.62;;;;;;;-0.14;82.60;98358.66;2014969;81;20189;-82
2020/12/10 04:36:24;;;;;;;8.89;6.08;;;;;;;-0.21;82.58;98359.34;2012758;81;20227;-82
2020/12/10 04:39:27;;;;;;;8.37;6.13;;;;;;;-0.24;82.63;98356.72;2013656;81;20173;-82
2020/12/10 04:42:29;;;;;;;9.88;6.46;;;;;;;-0.25;82.68;98356.69;2016491;81;20150;-83
2020/12/10 04:45:31;;;;;;;8.24;6.70;;;;;;;-0.23;82.92;98355.03;2014409;81;20122;-83
2020/12/10 04:48:34;;;;;;;9.20;5.88;;;;;;;-0.23;83.06;98363.56;2013356;81;20185;-83
2020/12/10 04:51:37;;;;;;;9.38;6.33;;;;;;;-0.28;82.93;98354.94;2013441;81;20192;-83
2020/12/10 04:54:39;;;;;;;8.90;6.29;;;;;;;-0.35;83.33;98353.97;2013197;81;20181;-83
2020/12/10 04:57:43;;;;;;;8.43;5.90;;;;;;;-0.37;83.50;98349.63;2016522;80;20195;-83
2020/12/10 05:00:45;;;;;;;11.24;6.71;;;;;;;-0.41;83.49;98341.06;2013066;81;20187;-83
2020/12/10 05:03:47;;;;;;;8.96;5.70;;;;;;;-0.43;83.62;98344.41;2014788;81;20174;-83
2020/12/10 05:06:50;;;;;;;8.33;6.10;;;;;;;-0.49;83.55;98346.84;2014564;81;20166;-83
2020/12/10 05:09:57;;;;;;;8.77;6.16;;;;;;;-0.51;83.55;98357.00;2016994;81;20170;-83
2020/12/10 05:16:20;;;;;;;9.48;6.41;;;;;;;-0.54;84.03;98353.50;2024794;70;20213;-84
2020/12/10 05:19:23;;;;;;;7.97;5.82;;;;;;;-0.56;84.15;98345.81;2014369;81;20227;-82
2020/12/10 05:22:26;;;;;;;7.59;5.53;;;;;;;-0.61;84.10;98342.31;2015697;81;20299;-82
2020/12/10 05:25:29;;;;;;;7.79;5.59;;;;;;;-0.56;84.26;98343.28;2015618;81;20283;-83
2020/12/10 05:28:45;;;;;;;8.67;5.74;;;;;;;-0.58;84.30;98341.53;2018552;80;20219;-82
2020/12/10 05:31:47;;;;;;;7.50;5.49;;;;;;;-0.58;84.32;98341.53;2012858;81;20235;-82
2020/12/10 05:34:49;;;;;;;7.92;5.76;;;;;;;-0.58;84.37;98351.72;2013313;81;20141;-82
2020/12/10 05:37:53;;;;;;;7.88;5.37;;;;;;;-0.62;84.17;98349.09;2017597;81;20199;-83
2020/12/10 05:48:02;;;;;;;8.59;5.73;;;;;;;-0.74;84.12;98351.34;2035685;70;20193;-83
2020/12/10 05:51:04;;;;;;;7.43;5.92;;;;;;;-0.76;84.23;98349.59;2014256;81;20178;-83
2020/12/10 05:54:09;;;;;;;7.86;5.18;;;;;;;-0.77;84.14;98347.88;2016431;81;20170;-83
2020/12/10 05:57:11;;;;;;;8.04;6.16;;;;;;;-0.78;84.05;98357.22;2014088;81;20138;-84
2020/12/10 06:00:15;;;;;;;8.02;5.97;;;;;;;-0.76;84.13;98349.59;2013962;81;20126;-83
2020/12/10 06:03:17;;;;;;;8.39;6.11;;;;;;;-0.80;83.87;98347.81;2017933;81;20158;-85
2020/12/10 06:06:22;;;;;;;7.91;5.72;;;;;;;-0.79;84.02;98347.00;2016067;81;20169;-82
2020/12/10 06:09:25;;;;;;;8.98;6.32;;;;;;;-0.79;84.08;98344.44;2016749;81;20138;-83
2020/12/10 06:12:27;;;;;;;7.34;5.99;;;;;;;-0.79;83.97;98350.41;2015034;81;20252;-82
2020/12/10 06:15:32;;;;;;;7.71;5.51;;;;;;;-0.78;83.79;98353.81;2015218;81;20193;-84
2020/12/10 06:18:54;;;;;;;8.14;5.91;;;;;;;-0.78;83.87;98353.81;2015544;81;20207;-84
2020/12/10 06:21:55;;;;;;;7.67;5.61;;;;;;;-0.79;83.80;98355.50;2017796;81;20325;-85
2020/12/10 06:25:03;;;;;;;8.80;5.87;;;;;;;-0.82;83.78;98363.06;2014442;81;20174;-84
2020/12/10 06:28:24;;;;;;;9.56;6.20;;;;;;;-0.83;83.80;98360.50;2016439;81;20170;-86
2020/12/10 06:31:27;;;;;;;8.60;5.77;;;;;;;-0.83;83.81;98360.50;2013476;81;20185;-83
2020/12/10 06:34:33;;;;;;;9.93;6.39;;;;;;;-0.83;83.84;98352.84;2013389;81;20257;-79
2020/12/10 06:37:46;;;;;;;8.34;6.10;;;;;;;-0.85;83.84;98357.06;2002970;81;20161;-70
2020/12/10 06:40:47;;;;;;;9.56;5.88;;;;;;;-0.88;83.74;98351.88;2000665;81;20177;-71
2020/12/10 06:43:49;;;;;;;10.54;6.34;;;;;;;-0.96;83.57;98357.63;2000516;81;20246;-71
2020/12/10 06:46:51;;;;;;;8.49;6.56;;;;;;;-1.07;83.77;98359.09;2000647;81;20174;-70
2020/12/10 06:49:53;;;;;;;10.44;6.34;;;;;;;-1.03;83.92;98360.00;2000189;81;20194;-72
2020/12/10 06:53:10;;;;;;;8.07;6.09;;;;;;;-1.07;83.88;98366.72;1999737;81;20203;-72
2020/12/10 06:56:14;;;;;;;8.70;5.73;;;;;;;-1.06;84.14;98355.72;2000576;81;20245;-72
2020/12/10 06:59:15;;;;;;;8.41;5.97;;;;;;;-1.00;84.29;98363.50;2000125;81;20789;-72
2020/12/10 07:02:20;;;;;;;8.40;6.23;;;;;;;-1.10;84.04;98356.44;2000216;81;20681;-73
2020/12/10 07:05:31;;;;;;;9.61;6.11;;;;;;;-1.17;84.13;98363.91;2000084;81;20185;-71
2020/12/10 07:08:32;;;;;;;8.96;6.17;;;;;;;-1.25;84.54;98367.13;2001063;81;20193;-71
2020/12/10 07:11:37;;;;;;;9.64;6.39;;;;;;;-1.19;85.14;98365.56;2001208;81;21099;-72
2020/12/10 07:14:38;;;;;;;10.46;6.53;;;;;;;-1.16;85.05;98369.03;2001166;81;20243;-72
2020/12/10 07:17:46;;;;;;;10.46;6.39;;;;;;;-1.16;84.79;98381.75;2000604;81;20196;-73
2020/12/10 07:20:47;;;;;;;9.07;6.12;;;;;;;-1.09;84.86;98370.03;2001986;81;20228;-69
2020/12/10 07:23:50;;;;;;;9.30;6.28;;;;;;;-1.08;84.68;98380.25;2000555;81;20235;-72
2020/12/10 07:26:53;;;;;;;11.68;7.29;;;;;;;-1.04;84.43;98379.53;2000966;81;20194;-71
2020/12/10 07:29:54;;;;;;;10.24;6.51;;;;;;;-1.06;84.05;98373.53;2000730;81;20207;-70
2020/12/10 07:33:04;;;;;;;10.01;6.61;;;;;;;-1.07;83.80;98373.50;2000256;81;20291;-69
2020/12/10 07:36:07;;;;;;;8.56;5.40;;;;;;;-1.05;83.74;98376.94;2000098;81;20292;-70
2020/12/10 07:39:08;;;;;;;9.31;5.92;;;;;;;-1.03;83.69;98382.94;2001941;81;20735;-71
2020/12/10 07:42:18;;;;;;;9.13;5.72;;;;;;;-1.03;83.65;98396.53;2003131;81;20186;-69
2020/12/10 07:45:20;;;;;;;8.48;6.34;;;;;;;-1.02;83.64;98390.63;2003204;81;20239;-70
2020/12/10 07:48:22;;;;;;;9.23;6.68;;;;;;;-0.99;83.83;98388.13;2002388;81;20202;-70
2020/12/10 07:51:25;;;;;;;10.33;6.26;;;;;;;-1.02;83.74;98390.63;2002574;81;20736;-71
2020/12/10 07:54:39;;;;;;;9.73;7.12;;;;;;;-0.99;84.12;98388.13;2000330;81;21189;-69
2020/12/10 07:57:45;;;;;;;11.48;6.97;;;;;;;-0.93;84.30;98385.72;2002686;81;20195;-69
2020/12/10 08:00:49;;;;;;;11.93;7.23;;;;;;;-0.92;84.46;98396.78;2002638;81;20247;-71
2020/12/10 08:04:12;;;;;;;9.64;6.77;;;;;;;-0.90;84.84;98392.59;2002476;81;20287;-72
2020/12/10 08:07:14;;;;;;;9.58;6.29;;;;;;;-0.76;85.20;98383.59;2002881;81;20291;-72
2020/12/10 08:10:29;;;;;;;10.78;7.33;;;;;;;-0.65;85.19;98389.81;2001466;81;20602;-72
2020/12/10 08:13:31;;;;;;;11.57;7.79;;;;;;;-0.47;85.35;98384.28;2001954;81;20678;-71
2020/12/10 08:16:43;;;;;;;12.89;7.86;;;;;;;-0.26;85.15;98389.00;2002085;81;20177;-72
2020/12/10 08:19:55;;;;;;;13.06;8.54;;;;;;;-0.11;84.89;98386.78;2003054;81;20640;-72
2020/12/10 08:23:00;;;;;;;11.64;7.06;;;;;;;0.02;84.50;98389.59;2002682;81;20178;-72
2020/12/10 08:26:10;;;;;;;13.06;8.50;;;;;;;0.16;84.28;98386.47;2001731;81;20173;-72
2020/12/10 08:29:14;;;;;;;12.78;8.16;;;;;;;0.39;84.09;98386.97;2002348;81;20158;-72
2020/12/10 08:32:16;;;;;;;11.13;7.94;;;;;;;0.53;83.65;98380.41;2000024;81;20216;-72
2020/12/10 08:35:19;;;;;;;10.62;7.49;;;;;;;0.74;83.41;98385.06;2000563;81;20325;-72
2020/12/10 08:38:23;;;;;;;12.30;8.03;;;;;;;0.92;82.81;98387.09;2000696;81;20652;-73
2020/12/10 08:41:34;;;;;;;11.19;7.76;;;;;;;1.14;82.43;98388.31;2001142;81;20214;-73
2020/12/10 08:44:51;;;;;;;11.44;8.03;;;;;;;1.37;81.66;98383.56;2000638;81;20594;-73
2020/12/10 08:48:09;;;;;;;11.96;8.06;;;;;;;1.56;80.90;98379.59;2000859;81;20579;-72
2020/12/10 08:51:10;;;;;;;12.10;7.51;;;;;;;1.71;80.11;98385.78;1998758;81;20332;-72
2020/12/10 08:54:12;;;;;;;11.36;8.10;;;;;;;1.85;79.64;98383.44;1998432;81;20449;-72
2020/12/10 08:57:46;;;;;;;11.91;8.21;;;;;;;2.02;79.32;98383.66;1999254;81;21303;-72
2020/12/10 09:00:48;;;;;;;12.31;7.66;;;;;;;2.22;78.85;98382.22;1999090;81;20355;-72
2020/12/10 09:03:50;;;;;;;10.29;7.04;;;;;;;2.36;77.95;98384.94;1998728;81;20416;-72
2020/12/10 09:06:51;;;;;;;11.01;8.14;;;;;;;2.49;77.69;98380.78;2000525;81;20304;-73
2020/12/10 09:09:53;;;;;;;13.07;7.47;;;;;;;2.59;76.96;98382.63;2000623;81;20762;-73
2020/12/10 09:12:56;;;;;;;10.20;7.96;;;;;;;2.65;76.55;98387.81;2000244;81;20336;-72
2020/12/10 09:16:11;;;;;;;10.90;7.59;;;;;;;2.77;76.11;98379.41;2000670;81;20486;-73
2020/12/10 09:19:13;;;;;;;9.19;7.49;;;;;;;2.92;75.53;98377.84;2000719;81;20370;-72
2020/12/10 09:22:15;;;;;;;9.51;7.34;;;;;;;3.04;75.27;98377.94;2001243;81;20882;-73
2020/12/10 09:25:16;;;;;;;10.81;7.18;;;;;;;3.10;74.71;98377.16;2000717;81;20733;-73
2020/12/10 09:28:18;;;;;;;11.75;7.13;;;;;;;3.16;74.42;98378.91;2001230;81;20313;-73
2020/12/10 09:31:19;;;;;;;8.85;7.09;;;;;;;3.22;74.05;98373.81;1997410;81;20348;-73
2020/12/10 09:34:21;;;;;;;11.00;6.81;;;;;;;3.35;73.82;98373.06;2001242;81;20333;-73
2020/12/10 09:37:23;;;;;;;12.15;7.19;;;;;;;3.44;73.54;98375.72;2002007;81;20461;-71
2020/12/10 09:40:25;;;;;;;9.40;6.82;;;;;;;3.56;72.97;98380.06;2003618;81;21032;-71
2020/12/10 09:43:27;;;;;;;9.38;6.60;;;;;;;3.67;72.37;98373.31;2002026;81;20316;-72
2020/12/10 09:46:32;;;;;;;11.40;7.16;;;;;;;3.76;72.12;98377.63;2002862;81;20321;-71
2020/12/10 09:49:34;;;;;;;8.23;6.01;;;;;;;3.85;71.86;98370.00;2001928;81;20320;-71
2020/12/10 09:52:40;;;;;;;7.25;5.91;;;;;;;3.85;71.42;98372.56;2002161;81;20434;-71
2020/12/10 09:58:47;;;;;;;8.90;6.04;;;;;;;3.76;70.29;98375.94;2004319;80;20372;-71
2020/12/10 10:01:49;;;;;;;6.39;5.04;;;;;;;3.52;70.00;98375.78;2002369;81;20320;-71
2020/12/10 10:04:51;;;;;;;4.46;3.99;;;;;;;3.40;70.42;98371.41;2002195;81;20379;-71
2020/12/10 10:07:52;;;;;;;5.71;3.89;;;;;;;3.31;69.88;98372.22;2000295;81;20312;-71
2020/12/10 10:10:54;;;;;;;4.61;3.84;;;;;;;3.38;70.56;98367.97;2002167;81;20373;-71
2020/12/10 10:13:56;;;;;;;5.32;3.61;;;;;;;3.36;69.42;98376.50;2002738;81;20373;-73
2020/12/10 10:16:58;;;;;;;4.46;3.63;;;;;;;3.21;69.06;98375.53;2001667;81;20738;-73
2020/12/10 10:19:59;;;;;;;3.81;3.39;;;;;;;3.13;69.35;98366.91;2002345;81;20497;-74
2020/12/10 10:23:03;;;;;;;4.71;3.33;;;;;;;3.16;70.03;98374.63;2002436;81;20338;-72
2020/12/10 10:26:04;;;;;;;3.47;2.79;;;;;;;3.20;70.69;98373.81;2001977;81;20340;-73
2020/12/10 10:29:08;;;;;;;4.26;3.05;;;;;;;3.17;69.99;98368.66;2002634;81;20375;-73
2020/12/10 10:32:10;;;;;;;3.54;2.94;;;;;;;3.18;70.25;98365.25;2001923;81;20367;-72
2020/12/10 10:35:11;;;;;;;4.53;3.08;;;;;;;3.23;70.40;98368.72;2001653;81;20347;-72
2020/12/10 10:38:13;;;;;;;5.51;2.81;;;;;;;3.21;70.14;98367.84;2000719;81;20393;-72
2020/12/10 10:41:15;;;;;;;3.33;2.66;;;;;;;3.19;70.12;98364.41;2002668;81;20308;-73
2020/12/10 10:44:17;;;;;;;3.96;2.89;;;;;;;3.15;69.72;98366.94;2002214;81;20381;-73
2020/12/10 10:47:19;;;;;;;3.03;2.60;;;;;;;3.09;69.60;98372.03;2003168;81;20308;-73
2020/12/10 10:50:21;;;;;;;3.92;2.35;;;;;;;3.05;69.55;98381.38;2003479;81;20930;-72
2020/12/10 10:53:23;;;;;;;2.88;2.34;;;;;;;3.03;69.62;98375.38;2003133;81;20374;-72
2020/12/10 10:56:25;;;;;;;2.97;2.60;;;;;;;3.03;69.66;98368.53;2003152;81;20717;-72
2020/12/10 10:59:28;;;;;;;2.63;2.28;;;;;;;3.02;69.57;98371.09;2002406;81;20385;-72
2020/12/10 11:02:29;;;;;;;3.85;2.11;;;;;;;2.98;69.15;98374.47;2006256;80;20333;-72
2020/12/10 11:05:31;;;;;;;3.97;3.10;;;;;;;2.95;69.28;98366.75;2003213;81;20359;-72
2020/12/10 11:08:32;;;;;;;3.80;2.47;;;;;;;2.95;69.39;98369.31;2003036;81;20641;-73
2020/12/10 11:11:34;;;;;;;2.89;2.42;;;;;;;2.93;69.36;98368.47;2002652;81;20367;-72
2020/12/10 11:14:36;;;;;;;2.80;2.36;;;;;;;2.89;69.34;98369.28;2003112;81;20336;-72
2020/12/10 11:17:37;;;;;;;2.80;2.20;;;;;;;2.93;69.53;98363.31;2003327;81;20666;-72
2020/12/10 11:20:39;;;;;;;2.59;2.17;;;;;;;2.93;69.35;98366.75;1998989;81;20428;-72
2020/12/10 11:23:42;;;;;;;2.64;2.34;;;;;;;2.98;69.27;98361.66;2003269;81;20769;-73
2020/12/10 11:26:43;;;;;;;2.84;2.59;;;;;;;2.90;69.18;98360.75;2002671;81;20328;-72
2020/12/10 11:29:45;;;;;;;3.25;2.29;;;;;;;2.95;69.68;98362.50;2002317;81;20305;-74
2020/12/10 11:32:47;;;;;;;2.55;2.26;;;;;;;2.92;69.09;98362.47;2002735;81;20326;-73
2020/12/10 11:35:50;;;;;;;2.30;2.05;;;;;;;2.92;69.32;98354.78;2003431;81;20342;-72
2020/12/10 11:38:51;;;;;;;2.47;1.92;;;;;;;2.95;69.38;98361.63;2002509;81;20548;-73
2020/12/10 11:41:53;;;;;;;3.91;2.58;;;;;;;2.98;69.26;98362.50;2003421;81;21258;-73
2020/12/10 11:44:55;;;;;;;2.97;2.16;;;;;;;2.97;68.92;98363.38;2002961;81;20334;-73
2020/12/10 11:47:59;;;;;;;2.65;2.22;;;;;;;2.90;69.35;98359.03;2003175;81;20373;-73
2020/12/10 11:51:00;;;;;;;3.01;2.51;;;;;;;2.96;69.78;98361.66;2002981;81;20438;-74
2020/12/10 11:54:03;;;;;;;2.75;2.55;;;;;;;2.95;69.89;98359.06;2001967;81;20304;-72
2020/12/10 11:57:05;;;;;;;2.96;2.20;;;;;;;2.99;69.73;98353.97;2002073;81;20698;-73
2020/12/10 12:00:09;;;;;;;4.96;2.36;;;;;;;3.05;69.85;98350.59;2000898;81;20767;-72
2020/12/10 12:03:11;;;;;;;3.30;2.47;;;;;;;3.06;69.53;98351.50;2001524;81;20371;-72
2020/12/10 12:06:12;;;;;;;2.53;2.30;;;;;;;3.07;69.38;98346.38;2002489;81;20800;-73
2020/12/10 12:09:14;;;;;;;3.15;2.33;;;;;;;3.08;69.52;98342.09;2002525;81;20504;-71
2020/12/10 12:12:16;;;;;;;2.79;2.31;;;;;;;3.09;69.37;98331.84;2002666;81;20324;-71
2020/12/10 12:15:18;;;;;;;3.49;2.21;;;;;;;3.04;69.29;98333.50;2002303;81;20346;-71
2020/12/10 12:18:20;;;;;;;4.86;2.53;;;;;;;3.04;69.10;98328.38;2002193;81;20358;-71
2020/12/10 12:21:27;;;;;;;2.50;2.22;;;;;;;3.05;69.42;98317.25;2002765;81;20312;-71
2020/12/10 12:24:29;;;;;;;4.04;2.66;;;;;;;3.11;69.42;98319.03;2002757;81;20511;-71
2020/12/10 12:27:30;;;;;;;3.49;2.60;;;;;;;3.10;68.93;98317.31;2002700;81;20375;-71
2020/12/10 12:30:33;;;;;;;4.03;2.95;;;;;;;3.15;69.38;98313.94;2002979;81;20317;-71
2020/12/10 12:33:36;;;;;;;2.78;2.16;;;;;;;3.19;69.32;98313.09;2002751;81;20368;-71
2020/12/10 12:36:38;;;;;;;3.10;2.53;;;;;;;3.26;69.26;98317.44;2002695;81;20366;-71
2020/12/10 12:39:40;;;;;;;4.59;2.88;;;;;;;3.26;69.08;98316.59;2001861;81;20332;-71
2020/12/10 12:42:42;;;;;;;3.80;3.04;;;;;;;3.28;68.96;98309.75;2002506;81;20386;-71
2020/12/10 12:45:44;;;;;;;2.99;2.34;;;;;;;3.29;68.66;98311.47;2002588;80;20341;-71
2020/12/10 12:48:45;;;;;;;2.95;2.59;;;;;;;3.32;68.65;98301.22;2002740;81;20324;-71
2020/12/10 12:51:54;;;;;;;3.96;3.10;;;;;;;3.34;68.57;98305.53;2002407;81;20328;-71
2020/12/10 12:54:58;;;;;;;2.90;2.61;;;;;;;3.32;68.31;98307.22;2003099;81;20320;-71
2020/12/10 12:58:00;;;;;;;4.70;2.79;;;;;;;3.34;68.33;98312.34;2002360;81;20162;-72
2020/12/10 13:01:02;;;;;;;3.92;2.59;;;;;;;3.33;68.39;98308.06;2002798;81;20360;-72
2020/12/10 13:04:09;;;;;;;3.44;2.80;;;;;;;3.34;68.58;98302.94;2002082;81;20341;-72
2020/12/10 13:07:14;;;;;;;3.66;2.67;;;;;;;3.36;68.44;98308.09;2003177;81;20340;-72
2020/12/10 13:10:16;;;;;;;2.90;2.34;;;;;;;3.37;68.25;98304.69;2001489;81;20226;-72
2020/12/10 13:13:18;;;;;;;3.49;2.78;;;;;;;3.39;68.27;98305.53;2003084;81;20316;-73
2020/12/10 13:16:19;;;;;;;3.46;2.47;;;;;;;3.40;68.42;98308.97;2002567;81;20333;-72
2020/12/10 13:19:21;;;;;;;3.35;2.54;;;;;;;3.40;68.02;98308.97;2002388;81;20497;-72
2020/12/10 13:22:23;;;;;;;2.71;2.41;;;;;;;3.38;68.09;98306.41;2001947;81;20340;-73
2020/12/10 13:25:26;;;;;;;3.00;2.63;;;;;;;3.24;68.37;98303.75;2002552;81;20462;-72
2020/12/10 13:28:28;;;;;;;4.07;2.70;;;;;;;3.28;68.40;98309.75;2002543;81;20332;-73
2020/12/10 13:31:35;;;;;;;3.64;2.65;;;;;;;3.26;68.25;98316.59;2002240;81;20358;-72
2020/12/10 13:34:37;;;;;;;4.14;2.45;;;;;;;3.23;68.15;98293.47;2002267;81;20346;-72
2020/12/10 13:37:39;;;;;;;3.70;2.41;;;;;;;3.17;68.69;98296.00;2002018;81;20340;-72
2020/12/10 13:40:40;;;;;;;3.41;2.89;;;;;;;3.13;69.03;98294.25;2002537;81;20346;-72
2020/12/10 13:43:42;;;;;;;4.06;2.72;;;;;;;3.13;69.13;98292.56;2002706;81;21161;-72
2020/12/10 13:46:44;;;;;;;2.88;2.56;;;;;;;3.16;69.13;98290.00;2001913;81;20301;-72
2020/12/10 13:49:46;;;;;;;3.31;2.60;;;;;;;3.14;68.92;98291.69;2003062;81;20391;-72
2020/12/10 13:52:48;;;;;;;2.47;2.28;;;;;;;3.06;68.65;98284.81;2002343;81;20814;-71
2020/12/10 13:55:50;;;;;;;3.40;2.81;;;;;;;2.98;68.64;98289.88;2002794;81;20323;-72
2020/12/10 13:58:52;;;;;;;3.46;2.65;;;;;;;2.93;69.01;98288.97;2002829;81;20348;-72
2020/12/10 14:01:54;;;;;;;4.72;2.26;;;;;;;2.95;69.40;98288.13;2003105;81;20453;-79
2020/12/10 14:04:56;;;;;;;5.06;3.00;;;;;;;2.99;69.71;98297.56;2004231;81;20452;-80
2020/12/10 14:08:14;;;;;;;2.94;2.63;;;;;;;3.07;69.77;98299.34;2004992;81;20338;-79
2020/12/10 14:11:26;;;;;;;3.96;2.81;;;;;;;2.99;69.49;98291.59;2002625;81;20181;-79
2020/12/10 14:14:28;;;;;;;4.00;2.50;;;;;;;3.02;69.87;98295.03;1999693;81;20850;-80
2020/12/10 14:17:30;;;;;;;3.78;2.59;;;;;;;3.08;69.67;98296.78;2003365;81;20349;-78
2020/12/10 14:20:32;;;;;;;3.15;2.54;;;;;;;3.13;69.13;98294.25;2002682;80;20374;-79
2020/12/10 14:23:33;;;;;;;2.53;2.11;;;;;;;3.11;68.70;98303.66;2002426;81;20341;-79
2020/12/10 14:26:35;;;;;;;3.66;2.70;;;;;;;3.08;69.18;98306.19;2003744;81;20305;-80
2020/12/10 14:29:37;;;;;;;2.80;2.36;;;;;;;3.05;69.09;98309.56;2007240;81;20312;-80
2020/12/10 14:32:38;;;;;;;2.50;2.26;;;;;;;3.06;68.90;98305.34;2005673;81;20328;-81
2020/12/10 14:35:51;;;;;;;2.19;2.06;;;;;;;2.99;68.72;98301.84;2004843;81;20356;-79
2020/12/10 14:38:52;;;;;;;2.65;2.08;;;;;;;2.86;69.10;98298.31;2003592;81;20335;-79
2020/12/10 14:41:54;;;;;;;2.75;2.39;;;;;;;2.85;69.42;98303.41;2003802;81;20312;-80
2020/12/10 14:44:55;;;;;;;2.40;2.20;;;;;;;2.87;69.23;98299.16;2006680;81;20320;-81
2020/12/10 14:47:59;;;;;;;2.40;2.20;;;;;;;2.87;69.34;98289.81;2037910;70;20329;-81